Humboldt, Tennessee
Current Conditions -  °F | °C
As of 10:53 AM on Thursday 23 Oct 2014 (Local Time) from KMKL Reporting Station
Clear Clear  
Wind Chill: 56°   Ceiling: Unl
Heat Index: 56°   Visibility: 10mi
Dew Point: 44°   Wind: 7mph
Humidity: 64%   Direction: 100°E
Pressure: 30.22"   Gusts: NA
Location:  35.82°N, 88.91°W
Report Text: KMKL 231553Z 10006KT 10SM CLR 13/07 A3022 RMK AO2 SLP232 T01330067
Loading
Personal Weather Stations






























Interactive Weather Map
Tropical Storm Tracking
New forecast layout! Learn more

10-Day Weather Forecast

Advertisements
Track Severe Weather on mobile